Time;durP1;ratioP1;P1;durP2;ratioP2;P2;SDS_P1;SDS_P2;PMS_P1;PMS_P2;Temp;Humidity;BMP_temperature;BMP_pressure;BME280_temperature;BME280_humidity;BME280_pressure;Samples;Min_cycle;Max_cycle;Signal;HPM_P1;HPM_P2
2023/12/11 00:00:32;;;;;;;15.75;2.37;;;9.60;99.90;;;;;;7343589;32;20175;-55
2023/12/11 00:04:34;;;;;;;14.73;2.47;;;9.50;99.90;;;;;;7351857;32;20797;-57
2023/12/11 00:08:36;;;;;;;13.18;2.45;;;9.50;99.90;;;;;;7343712;32;20270;-55
2023/12/11 00:12:38;;;;;;;21.55;2.62;;;9.50;99.90;;;;;;7331156;32;20155;-56
2023/12/11 00:16:40;;;;;;;15.98;2.20;;;9.40;99.90;;;;;;7350256;32;20189;-56
2023/12/11 00:20:42;;;;;;;18.30;3.20;;;9.40;99.90;;;;;;7347325;32;20130;-58
2023/12/11 00:24:44;;;;;;;22.58;2.75;;;9.40;99.90;;;;;;7349505;32;20179;-54
2023/12/11 00:28:47;;;;;;;14.02;2.65;;;9.40;99.90;;;;;;7349127;32;20096;-56
2023/12/11 00:32:52;;;;;;;21.00;3.22;;;9.40;99.90;;;;;;7349728;32;20228;-54
2023/12/11 00:36:54;;;;;;;20.95;2.62;;;9.40;99.90;;;;;;7350384;32;20203;-56
2023/12/11 00:40:56;;;;;;;21.85;3.08;;;9.50;99.90;;;;;;7350822;32;20099;-55
2023/12/11 00:44:58;;;;;;;23.42;2.97;;;9.50;99.90;;;;;;7351373;32;20234;-57
2023/12/11 00:48:59;;;;;;;22.50;3.22;;;9.60;99.90;;;;;;7349611;32;20106;-56
2023/12/11 00:53:01;;;;;;;24.25;4.00;;;9.60;99.90;;;;;;7348053;32;20092;-56
2023/12/11 00:57:03;;;;;;;17.55;3.65;;;9.60;99.90;;;;;;7347615;32;20103;-56
2023/12/11 01:01:06;;;;;;;20.62;3.47;;;9.60;99.90;;;;;;7347970;32;20209;-55
2023/12/11 01:05:09;;;;;;;26.50;3.03;;;9.60;99.90;;;;;;7350279;32;20570;-56
2023/12/11 01:09:12;;;;;;;19.10;2.92;;;9.60;99.90;;;;;;7343080;32;20226;-57
2023/12/11 01:13:14;;;;;;;19.33;2.58;;;9.60;99.90;;;;;;7347103;32;20103;-54
2023/12/11 01:17:16;;;;;;;19.73;2.47;;;9.50;99.90;;;;;;7347033;32;20256;-53
2023/12/11 01:21:38;;;;;;;21.90;3.17;;;9.50;99.90;;;;;;7347307;32;20091;-56
2023/12/11 01:25:39;;;;;;;21.00;3.08;;;9.50;99.90;;;;;;7348059;32;20246;-55
2023/12/11 01:29:41;;;;;;;16.87;2.60;;;9.50;99.90;;;;;;7356282;32;20103;-55
2023/12/11 01:33:43;;;;;;;26.23;3.65;;;9.50;99.90;;;;;;7351404;32;20257;-55
2023/12/11 01:37:45;;;;;;;27.50;3.72;;;9.40;99.90;;;;;;7354346;32;20095;-55
2023/12/11 01:41:47;;;;;;;23.05;3.28;;;9.50;99.90;;;;;;7351546;32;20251;-57
2023/12/11 01:46:06;;;;;;;18.58;2.83;;;9.50;99.90;;;;;;7350497;32;20183;-56
2023/12/11 01:50:08;;;;;;;21.65;2.85;;;9.70;99.90;;;;;;7350750;32;20092;-56
2023/12/11 01:54:10;;;;;;;18.30;3.08;;;9.70;99.90;;;;;;7356053;32;20469;-56
2023/12/11 01:58:12;;;;;;;20.27;2.50;;;9.80;99.90;;;;;;7354316;32;20104;-56
2023/12/11 02:02:15;;;;;;;15.15;2.62;;;9.80;99.90;;;;;;7354180;32;20100;-55
2023/12/11 02:06:17;;;;;;;22.30;3.50;;;9.80;99.90;;;;;;7348600;32;20202;-55
2023/12/11 02:10:19;;;;;;;22.30;3.97;;;9.90;99.90;;;;;;7349395;32;20172;-55
2023/12/11 02:14:21;;;;;;;20.58;2.65;;;9.90;99.90;;;;;;7352338;32;20568;-55
2023/12/11 02:18:23;;;;;;;19.30;3.65;;;9.90;99.90;;;;;;7351564;32;20167;-56
2023/12/11 02:22:25;;;;;;;21.92;3.60;;;10.00;99.90;;;;;;7349218;32;20720;-55
2023/12/11 02:26:27;;;;;;;23.52;2.90;;;10.00;99.90;;;;;;7349932;32;20219;-56
2023/12/11 02:30:36;;;;;;;20.00;2.90;;;9.90;99.90;;;;;;7348757;32;20556;-55
2023/12/11 02:34:37;;;;;;;20.35;3.03;;;10.00;99.90;;;;;;7354755;32;20588;-55
2023/12/11 02:38:39;;;;;;;21.25;3.83;;;10.10;99.90;;;;;;7350443;32;20091;-56
2023/12/11 02:42:48;;;;;;;25.52;3.30;;;10.00;99.90;;;;;;7356652;32;20603;-56
2023/12/11 02:46:49;;;;;;;29.65;3.17;;;10.00;99.90;;;;;;7349063;32;20261;-57
2023/12/11 02:50:51;;;;;;;25.62;3.17;;;10.00;99.90;;;;;;7352495;32;20155;-55
2023/12/11 02:54:53;;;;;;;28.95;2.70;;;9.90;99.90;;;;;;7355239;32;20560;-55
2023/12/11 02:58:55;;;;;;;21.87;2.47;;;9.90;99.90;;;;;;7355982;32;20122;-55
2023/12/11 03:02:57;;;;;;;19.58;3.05;;;9.80;99.90;;;;;;7349293;32;20122;-55
2023/12/11 03:06:59;;;;;;;25.05;2.95;;;9.80;99.90;;;;;;7351859;32;20159;-56
2023/12/11 03:11:00;;;;;;;24.02;3.00;;;9.80;99.90;;;;;;7352864;32;20234;-55
2023/12/11 03:15:05;;;;;;;21.08;3.90;;;9.80;99.90;;;;;;7352860;32;20686;-56
2023/12/11 03:19:06;;;;;;;28.75;3.30;;;9.80;99.90;;;;;;7354923;32;20103;-55
2023/12/11 03:23:08;;;;;;;22.95;3.60;;;9.80;99.90;;;;;;7353834;32;20144;-56
2023/12/11 03:27:10;;;;;;;21.83;2.35;;;9.90;99.90;;;;;;7350568;32;20254;-55
2023/12/11 03:31:12;;;;;;;23.15;2.70;;;9.80;99.90;;;;;;7346230;32;20387;-56
2023/12/11 03:35:14;;;;;;;19.73;3.33;;;9.60;99.90;;;;;;7344082;32;20586;-55
2023/12/11 03:39:15;;;;;;;23.40;2.70;;;9.60;99.90;;;;;;7352952;32;20104;-55
2023/12/11 03:43:17;;;;;;;23.65;3.03;;;9.50;99.90;;;;;;7343699;32;20763;-56
2023/12/11 03:47:21;;;;;;;21.27;3.03;;;9.50;99.90;;;;;;7347232;32;20100;-56
2023/12/11 03:51:23;;;;;;;20.80;2.80;;;9.50;99.90;;;;;;7348746;32;20157;-56
2023/12/11 03:55:24;;;;;;;19.20;2.80;;;9.60;99.90;;;;;;7350468;32;20115;-56
2023/12/11 03:59:26;;;;;;;20.58;2.83;;;9.70;99.90;;;;;;7347107;32;20099;-55
2023/12/11 04:03:28;;;;;;;24.60;3.00;;;9.60;99.90;;;;;;7343529;32;20179;-55
2023/12/11 04:07:30;;;;;;;19.70;3.28;;;9.50;99.90;;;;;;7347544;32;20171;-56
2023/12/11 04:11:32;;;;;;;19.08;2.58;;;9.50;99.90;;;;;;7350652;32;20585;-56
2023/12/11 04:15:34;;;;;;;18.65;2.12;;;9.70;99.90;;;;;;7345712;32;20509;-55
2023/12/11 04:19:36;;;;;;;16.92;3.42;;;9.80;99.90;;;;;;7353401;32;20509;-55
2023/12/11 04:23:38;;;;;;;21.12;3.33;;;9.80;99.90;;;;;;7342317;32;20782;-56
2023/12/11 04:27:39;;;;;;;23.62;2.97;;;9.60;99.90;;;;;;7350215;32;20897;-55
2023/12/11 04:31:41;;;;;;;20.40;2.47;;;9.40;99.90;;;;;;7352634;32;20544;-55
2023/12/11 04:35:44;;;;;;;18.27;2.97;;;9.30;99.90;;;;;;7353236;32;20121;-55
2023/12/11 04:39:46;;;;;;;18.65;2.87;;;9.20;99.90;;;;;;7353194;32;20164;-55
2023/12/11 04:43:48;;;;;;;16.20;2.33;;;9.10;99.90;;;;;;7345778;32;20553;-55
2023/12/11 04:47:50;;;;;;;24.17;3.92;;;9.20;99.90;;;;;;7349014;32;20164;-55
2023/12/11 04:51:52;;;;;;;21.25;3.00;;;9.20;99.90;;;;;;7345118;32;20118;-55
2023/12/11 04:55:54;;;;;;;20.73;2.72;;;9.20;99.90;;;;;;7356040;32;20092;-56
2023/12/11 04:59:55;;;;;;;18.95;2.47;;;9.10;99.90;;;;;;7353304;32;20114;-55
2023/12/11 05:03:57;;;;;;;17.52;2.53;;;9.00;99.90;;;;;;7353731;32;20664;-57
2023/12/11 05:07:59;;;;;;;17.90;2.30;;;9.00;99.90;;;;;;7356592;32;20106;-56
2023/12/11 05:12:01;;;;;;;19.90;2.62;;;8.90;99.90;;;;;;7357437;32;20612;-56
2023/12/11 05:16:03;;;;;;;21.77;2.20;;;8.90;99.90;;;;;;7355361;32;20099;-55
2023/12/11 05:20:06;;;;;;;26.50;3.47;;;8.90;99.90;;;;;;7352412;32;20209;-55
2023/12/11 05:24:07;;;;;;;18.77;2.85;;;8.90;99.90;;;;;;7354353;32;20114;-55
2023/12/11 05:28:10;;;;;;;21.45;2.60;;;8.80;99.90;;;;;;7351523;32;20143;-56
2023/12/11 05:32:12;;;;;;;15.88;2.33;;;8.80;99.90;;;;;;7349260;32;20239;-57
2023/12/11 05:36:14;;;;;;;16.80;2.50;;;8.80;99.90;;;;;;7341043;32;20348;-56
2023/12/11 05:40:16;;;;;;;25.58;2.97;;;8.80;99.90;;;;;;7348302;32;20272;-55
2023/12/11 05:44:24;;;;;;;17.15;2.35;;;8.80;99.90;;;;;;7345472;32;20121;-56
2023/12/11 05:48:26;;;;;;;19.62;2.72;;;8.70;99.90;;;;;;7347985;32;20300;-55
2023/12/11 05:52:28;;;;;;;19.83;2.42;;;8.70;99.90;;;;;;7348399;32;20103;-56
2023/12/11 05:56:30;;;;;;;17.87;2.62;;;8.70;99.90;;;;;;7344493;32;20107;-55
2023/12/11 06:00:32;;;;;;;15.52;2.28;;;8.60;99.90;;;;;;7341537;32;20104;-54
2023/12/11 06:04:34;;;;;;;24.30;2.90;;;8.70;99.90;;;;;;7342045;32;20699;-54
2023/12/11 06:08:35;;;;;;;20.58;2.45;;;8.70;99.90;;;;;;7347679;32;20171;-56
2023/12/11 06:12:37;;;;;;;14.32;2.08;;;8.80;99.90;;;;;;7347485;32;20529;-55
2023/12/11 06:16:39;;;;;;;16.23;2.00;;;8.90;99.90;;;;;;7348712;32;20111;-57
2023/12/11 06:20:41;;;;;;;12.20;1.83;;;8.90;99.90;;;;;;7347589;32;20103;-56
2023/12/11 06:24:43;;;;;;;14.63;2.10;;;8.90;99.90;;;;;;7348862;32;20138;-56
2023/12/11 06:28:45;;;;;;;14.40;2.12;;;8.90;99.90;;;;;;7353286;32;20568;-55
2023/12/11 06:32:47;;;;;;;18.05;1.90;;;9.00;99.90;;;;;;7351493;32;20167;-55
2023/12/11 06:36:49;;;;;;;13.30;1.95;;;9.00;99.90;;;;;;7347133;32;20104;-57
2023/12/11 06:40:51;;;;;;;14.52;1.85;;;9.10;99.90;;;;;;7344995;32;20853;-56
2023/12/11 06:44:53;;;;;;;13.55;2.10;;;9.10;99.90;;;;;;7349912;32;20636;-55
2023/12/11 06:48:58;;;;;;;19.02;2.05;;;9.30;99.90;;;;;;7347442;32;20430;-56
2023/12/11 06:53:01;;;;;;;23.23;2.37;;;9.20;99.90;;;;;;7351740;32;20786;-55
2023/12/11 06:57:03;;;;;;;16.60;2.87;;;9.30;99.90;;;;;;7349823;32;20175;-55
2023/12/11 07:01:09;;;;;;;12.50;2.37;;;9.30;99.90;;;;;;7345770;32;20103;-55
2023/12/11 07:05:11;;;;;;;14.40;2.30;;;9.30;99.90;;;;;;7345106;32;20111;-55
2023/12/11 07:09:13;;;;;;;15.88;2.60;;;9.40;99.90;;;;;;7342122;32;20107;-56
2023/12/11 07:13:15;;;;;;;13.98;2.62;;;9.50;99.90;;;;;;7351040;32;20111;-56
2023/12/11 07:17:17;;;;;;;20.67;2.65;;;9.40;99.90;;;;;;7348381;32;20442;-56
2023/12/11 07:21:19;;;;;;;20.37;2.37;;;9.40;99.90;;;;;;7349424;32;20182;-57
2023/12/11 07:25:21;;;;;;;17.75;2.20;;;9.40;99.90;;;;;;7346981;32;20115;-55
2023/12/11 07:29:23;;;;;;;17.52;2.33;;;9.40;99.90;;;;;;7348682;32;20183;-56
2023/12/11 07:33:25;;;;;;;11.90;1.80;;;9.40;99.90;;;;;;7349906;32;20173;-57
2023/12/11 07:37:27;;;;;;;16.02;1.58;;;9.50;99.90;;;;;;7349350;32;20152;-57
2023/12/11 07:41:29;;;;;;;12.73;2.60;;;9.50;99.90;;;;;;7350003;32;20103;-56
2023/12/11 07:45:31;;;;;;;16.58;2.22;;;9.60;99.90;;;;;;7351152;32;20187;-58
2023/12/11 07:49:32;;;;;;;21.62;3.05;;;9.60;99.90;;;;;;7343200;32;20209;-57
2023/12/11 07:53:34;;;;;;;11.88;1.52;;;9.70;99.90;;;;;;7348884;32;20174;-57
2023/12/11 07:57:36;;;;;;;15.73;2.42;;;9.70;99.90;;;;;;7344689;32;20121;-57
2023/12/11 08:01:38;;;;;;;13.15;2.10;;;9.80;99.90;;;;;;7339136;32;20120;-57
2023/12/11 08:05:40;;;;;;;12.73;2.70;;;9.70;99.90;;;;;;7343995;32;20095;-57
2023/12/11 08:09:42;;;;;;;22.13;2.42;;;9.80;99.90;;;;;;7348764;32;20090;-57
2023/12/11 08:13:44;;;;;;;24.08;2.37;;;9.70;99.90;;;;;;7342836;32;20452;-56
2023/12/11 08:17:46;;;;;;;15.75;2.35;;;9.70;99.90;;;;;;7343745;32;20335;-57
2023/12/11 08:21:48;;;;;;;17.30;1.58;;;9.70;99.90;;;;;;7346021;32;20107;-57
2023/12/11 08:25:50;;;;;;;17.37;2.33;;;9.60;99.90;;;;;;7343554;32;20119;-57
2023/12/11 08:29:52;;;;;;;19.27;2.22;;;9.60;99.90;;;;;;7328303;32;20928;-58
2023/12/11 08:33:54;;;;;;;11.40;1.83;;;9.50;99.90;;;;;;7348328;32;20112;-57
2023/12/11 08:37:55;;;;;;;16.15;1.85;;;9.50;99.90;;;;;;7342776;32;20123;-57
2023/12/11 08:41:57;;;;;;;11.18;2.03;;;9.40;99.90;;;;;;7345962;32;20110;-57
2023/12/11 08:45:59;;;;;;;21.37;2.50;;;9.40;99.90;;;;;;7348338;32;20167;-56
2023/12/11 08:50:01;;;;;;;11.07;2.33;;;9.50;99.90;;;;;;7345476;32;20107;-55
2023/12/11 08:54:03;;;;;;;13.15;2.33;;;9.70;99.90;;;;;;7346613;32;20293;-58
2023/12/11 08:58:05;;;;;;;10.77;2.10;;;9.60;99.90;;;;;;7349003;32;20121;-58
2023/12/11 09:02:07;;;;;;;19.45;2.28;;;9.60;99.90;;;;;;7350231;32;20162;-56
2023/12/11 09:06:09;;;;;;;13.25;2.10;;;9.70;99.90;;;;;;7347483;32;20247;-56
2023/12/11 09:10:11;;;;;;;8.50;1.75;;;9.80;99.90;;;;;;7337620;32;20121;-56
2023/12/11 09:14:13;;;;;;;13.68;2.10;;;9.70;99.90;;;;;;7334343;32;20235;-56
2023/12/11 09:18:15;;;;;;;15.38;2.35;;;9.70;99.90;;;;;;7326561;32;20127;-56
2023/12/11 09:22:17;;;;;;;15.38;2.37;;;9.70;99.90;;;;;;7344873;32;20754;-56
2023/12/11 09:26:19;;;;;;;15.15;2.20;;;9.80;99.90;;;;;;7349332;32;20833;-56
2023/12/11 09:30:21;;;;;;;10.13;1.67;;;9.80;99.90;;;;;;7328667;32;20126;-56
2023/12/11 09:34:23;;;;;;;11.40;1.85;;;9.80;99.90;;;;;;7341536;32;20370;-58
2023/12/11 09:38:25;;;;;;;9.70;1.50;;;9.80;99.90;;;;;;7349126;32;20660;-56
2023/12/11 09:42:29;;;;;;;15.48;2.00;;;9.90;99.90;;;;;;7355001;32;20625;-58
2023/12/11 09:46:40;;;;;;;10.13;2.40;;;9.80;99.90;;;;;;7351727;32;20118;-57
2023/12/11 09:50:43;;;;;;;19.50;2.35;;;9.80;99.90;;;;;;7348584;32;20119;-58
2023/12/11 09:54:47;;;;;;;13.35;2.40;;;9.80;99.90;;;;;;7347366;32;20206;-56
2023/12/11 09:58:49;;;;;;;14.23;2.17;;;9.90;99.90;;;;;;7344915;32;20214;-57
2023/12/11 10:02:52;;;;;;;21.37;2.55;;;9.80;99.90;;;;;;7353107;32;20137;-56
2023/12/11 10:06:54;;;;;;;12.70;2.58;;;9.80;99.90;;;;;;7346934;32;20230;-55
2023/12/11 10:11:17;;;;;;;11.48;2.20;;;9.80;99.90;;;;;;7350901;32;20121;-57
2023/12/11 10:15:25;;;;;;;14.27;2.35;;;9.80;99.90;;;;;;7349540;32;20102;-56
2023/12/11 10:19:33;;;;;;;17.87;2.75;;;9.80;99.90;;;;;;7353520;32;20257;-57
2023/12/11 10:23:35;;;;;;;18.45;2.60;;;9.80;99.90;;;;;;7354374;32;20213;-55
2023/12/11 10:27:37;;;;;;;20.45;2.72;;;9.80;99.90;;;;;;7352684;32;20118;-56
2023/12/11 10:31:39;;;;;;;15.88;2.05;;;9.80;99.90;;;;;;7350875;32;20090;-56
2023/12/11 10:35:41;;;;;;;15.13;2.60;;;9.80;99.90;;;;;;7354991;32;20269;-57
2023/12/11 10:39:54;;;;;;;14.18;2.47;;;9.80;99.90;;;;;;7346321;32;20119;-57
2023/12/11 10:43:56;;;;;;;14.48;2.30;;;9.80;99.90;;;;;;7345721;32;20100;-56
2023/12/11 10:48:17;;;;;;;16.00;2.45;;;9.80;99.90;;;;;;7343899;32;20789;-57
2023/12/11 10:52:19;;;;;;;12.70;2.10;;;9.60;99.90;;;;;;7352210;32;20129;-56
2023/12/11 10:56:21;;;;;;;14.55;2.47;;;9.60;99.90;;;;;;7352590;32;20196;-56
2023/12/11 11:00:24;;;;;;;12.32;2.30;;;9.40;99.90;;;;;;7348744;32;20209;-56
2023/12/11 11:04:30;;;;;;;15.70;2.45;;;9.30;99.90;;;;;;7341963;32;20202;-57
2023/12/11 11:08:41;;;;;;;16.05;2.67;;;9.20;99.90;;;;;;7346536;32;20176;-58
2023/12/11 11:13:07;;;;;;;13.80;2.40;;;9.20;99.90;;;;;;7347773;32;20260;-58
2023/12/11 11:17:09;;;;;;;11.30;1.92;;;9.30;99.90;;;;;;7346826;32;20103;-56
2023/12/11 11:21:12;;;;;;;14.43;2.28;;;9.30;99.90;;;;;;7344516;32;20282;-58
2023/12/11 11:25:34;;;;;;;9.48;2.53;;;9.30;99.90;;;;;;7345630;32;20616;-57
2023/12/11 11:29:44;;;;;;;11.35;1.85;;;9.40;99.90;;;;;;7350234;32;20603;-58
2023/12/11 11:33:47;;;;;;;14.30;2.03;;;9.50;99.90;;;;;;7348850;32;20126;-56
2023/12/11 11:37:50;;;;;;;9.40;2.37;;;9.60;99.90;;;;;;7352503;32;20117;-57
2023/12/11 11:41:51;;;;;;;14.10;2.30;;;9.60;99.90;;;;;;7350578;32;20202;-57
2023/12/11 11:45:55;;;;;;;6.72;1.48;;;9.70;99.90;;;;;;7347335;32;20099;-57
2023/12/11 11:50:08;;;;;;;13.25;1.98;;;9.60;99.90;;;;;;7346957;32;20902;-56
2023/12/11 11:54:10;;;;;;;6.72;1.37;;;9.60;99.90;;;;;;7344799;32;20475;-56
2023/12/11 11:58:15;;;;;;;10.38;1.67;;;9.70;99.90;;;;;;7349799;32;20118;-59
2023/12/11 12:02:22;;;;;;;8.98;1.60;;;9.80;99.90;;;;;;7345616;32;20253;-58
2023/12/11 12:06:24;;;;;;;7.28;1.23;;;9.80;99.90;;;;;;7353604;32;20485;-56
2023/12/11 12:10:27;;;;;;;7.40;1.87;;;9.80;99.90;;;;;;7349749;32;20135;-57
2023/12/11 12:14:28;;;;;;;11.25;1.40;;;9.80;99.90;;;;;;7349176;32;20115;-57
2023/12/11 12:18:30;;;;;;;4.53;0.93;;;9.70;99.90;;;;;;7347303;32;20171;-55
2023/12/11 12:22:32;;;;;;;3.70;0.65;;;9.20;99.90;;;;;;7342920;32;20229;-55
2023/12/11 12:26:36;;;;;;;4.28;0.70;;;8.80;99.90;;;;;;7342464;32;20280;-56
2023/12/11 12:30:38;;;;;;;3.87;0.62;;;8.40;99.90;;;;;;7337660;32;20099;-56
2023/12/11 12:34:45;;;;;;;3.95;0.55;;;8.30;99.90;;;;;;7350028;32;20901;-58
2023/12/11 12:38:47;;;;;;;5.40;0.80;;;8.20;99.90;;;;;;7343814;32;20187;-55
2023/12/11 12:42:49;;;;;;;3.72;0.70;;;8.10;99.90;;;;;;7348668;32;20347;-57
2023/12/11 12:46:51;;;;;;;4.28;0.80;;;8.00;99.90;;;;;;7351598;32;20744;-57
2023/12/11 12:51:05;;;;;;;4.50;0.88;;;8.00;99.90;;;;;;7346230;32;20107;-57
2023/12/11 12:55:07;;;;;;;3.65;0.60;;;7.90;99.90;;;;;;7343336;32;20121;-57
2023/12/11 12:59:09;;;;;;;3.97;0.62;;;7.90;99.90;;;;;;7348694;32;20546;-58
2023/12/11 13:03:10;;;;;;;4.00;0.75;;;7.80;99.90;;;;;;7344694;32;20636;-58
2023/12/11 13:07:12;;;;;;;2.42;0.82;;;7.90;99.90;;;;;;7345436;32;20228;-59
2023/12/11 13:11:14;;;;;;;5.68;1.05;;;8.00;99.90;;;;;;7349369;32;20231;-59
2023/12/11 13:15:17;;;;;;;5.45;1.25;;;7.90;99.90;;;;;;7348067;32;20268;-59
2023/12/11 13:19:19;;;;;;;9.13;1.50;;;8.00;99.90;;;;;;7353863;32;20133;-56
2023/12/11 13:23:23;;;;;;;7.80;1.50;;;8.00;99.90;;;;;;7351116;32;20115;-58
2023/12/11 13:27:26;;;;;;;7.03;0.98;;;8.00;99.90;;;;;;7340707;32;20111;-57
2023/12/11 13:31:28;;;;;;;6.75;1.30;;;8.10;99.90;;;;;;7346911;32;20201;-57
2023/12/11 13:35:31;;;;;;;4.93;1.00;;;8.10;99.90;;;;;;7352992;32;20179;-57
2023/12/11 13:39:33;;;;;;;4.12;1.10;;;8.20;99.90;;;;;;7349460;32;20120;-57
2023/12/11 13:43:35;;;;;;;7.55;1.10;;;8.10;99.90;;;;;;7351661;32;20186;-57
2023/12/11 13:47:38;;;;;;;4.95;1.50;;;8.20;99.90;;;;;;7349680;32;20125;-57
2023/12/11 13:51:40;;;;;;;5.57;1.00;;;8.20;99.90;;;;;;7347504;32;20151;-57
2023/12/11 13:55:42;;;;;;;4.00;0.95;;;8.30;99.90;;;;;;7343721;32;20657;-57
2023/12/11 13:59:43;;;;;;;5.40;1.35;;;8.20;99.90;;;;;;7350301;32;20112;-57
2023/12/11 14:03:45;;;;;;;9.60;1.30;;;8.20;99.90;;;;;;7348451;32;20261;-58
2023/12/11 14:07:48;;;;;;;5.37;1.00;;;8.20;99.90;;;;;;7345679;32;20099;-57
2023/12/11 14:11:53;;;;;;;8.05;1.05;;;8.20;99.90;;;;;;7343508;32;20103;-58
2023/12/11 14:15:55;;;;;;;7.40;1.00;;;8.20;99.90;;;;;;7349248;32;20465;-57
2023/12/11 14:19:57;;;;;;;4.97;1.10;;;8.20;99.90;;;;;;7343958;32;20247;-58
2023/12/11 14:23:59;;;;;;;7.80;1.27;;;8.10;99.90;;;;;;7337743;32;20114;-58
2023/12/11 14:28:04;;;;;;;4.30;1.10;;;8.00;99.90;;;;;;7343930;32;21491;-58
2023/12/11 14:32:08;;;;;;;3.97;1.50;;;8.00;99.90;;;;;;7344303;32;20226;-58
2023/12/11 14:36:10;;;;;;;4.45;1.40;;;8.00;99.90;;;;;;7348843;32;20114;-57
2023/12/11 14:40:22;;;;;;;6.12;1.20;;;8.10;99.90;;;;;;7344180;32;20129;-58
2023/12/11 14:44:24;;;;;;;4.45;1.20;;;8.10;99.90;;;;;;7351414;32;20436;-57
2023/12/11 14:48:26;;;;;;;4.87;1.25;;;8.00;99.90;;;;;;7352158;32;20099;-57
2023/12/11 14:52:28;;;;;;;7.22;1.40;;;7.90;99.90;;;;;;7346668;32;20537;-58
2023/12/11 14:56:29;;;;;;;6.00;1.30;;;7.90;99.90;;;;;;7346176;32;20129;-58
2023/12/11 15:00:31;;;;;;;6.90;1.37;;;7.90;99.90;;;;;;7340593;32;20217;-57
2023/12/11 15:04:33;;;;;;;8.75;1.67;;;7.90;99.90;;;;;;7349830;32;20921;-57
2023/12/11 15:08:35;;;;;;;5.93;1.42;;;7.80;99.90;;;;;;7351569;32;20608;-55
2023/12/11 15:12:37;;;;;;;6.37;1.33;;;7.90;99.90;;;;;;7347235;32;20103;-55
2023/12/11 15:16:40;;;;;;;6.20;1.83;;;7.90;99.90;;;;;;7350613;32;20129;-55
2023/12/11 15:20:43;;;;;;;8.52;1.52;;;8.00;99.90;;;;;;7344810;32;20099;-57
2023/12/11 15:24:46;;;;;;;9.88;1.62;;;8.00;99.90;;;;;;7348878;32;20217;-57
2023/12/11 15:28:47;;;;;;;8.50;1.40;;;8.10;99.90;;;;;;7344970;32;20122;-57
2023/12/11 15:32:49;;;;;;;5.28;1.35;;;8.10;99.90;;;;;;7349719;32;20111;-58
2023/12/11 15:36:52;;;;;;;5.15;1.23;;;8.10;99.90;;;;;;7352660;32;20114;-57
2023/12/11 15:40:54;;;;;;;6.55;1.60;;;8.10;99.90;;;;;;7348223;32;20095;-56
2023/12/11 15:44:56;;;;;;;6.68;1.70;;;8.20;99.90;;;;;;7348910;32;20210;-56
2023/12/11 15:48:59;;;;;;;4.12;1.33;;;8.20;99.90;;;;;;7352022;32;20114;-58
2023/12/11 15:53:03;;;;;;;5.97;1.90;;;8.30;99.90;;;;;;7344482;32;20115;-57
2023/12/11 15:57:04;;;;;;;8.82;1.92;;;8.30;99.90;;;;;;7346533;32;20119;-56
2023/12/11 16:01:08;;;;;;;8.00;1.80;;;8.30;99.90;;;;;;7347482;32;20187;-57
2023/12/11 16:05:10;;;;;;;8.98;1.50;;;8.20;99.90;;;;;;7347584;32;20460;-57
2023/12/11 16:09:14;;;;;;;8.02;1.83;;;8.10;99.90;;;;;;7352630;32;20422;-57
2023/12/11 16:13:15;;;;;;;6.47;1.45;;;8.10;99.90;;;;;;7340109;32;20204;-56
2023/12/11 16:17:17;;;;;;;11.77;1.85;;;8.10;99.90;;;;;;7343168;32;20100;-57
2023/12/11 16:21:19;;;;;;;5.75;1.40;;;8.10;99.90;;;;;;7349895;32;20694;-57
2023/12/11 16:25:21;;;;;;;9.48;1.62;;;8.20;99.90;;;;;;7349944;32;20149;-57
2023/12/11 16:29:22;;;;;;;6.78;1.58;;;8.20;99.90;;;;;;7346121;32;20100;-57
2023/12/11 16:33:24;;;;;;;10.77;1.80;;;8.30;99.90;;;;;;7349863;32;20814;-56
2023/12/11 16:37:26;;;;;;;7.22;1.52;;;8.40;99.90;;;;;;7344819;32;20220;-56
2023/12/11 16:41:28;;;;;;;11.70;2.33;;;8.40;99.90;;;;;;7348950;32;20103;-57
2023/12/11 16:45:30;;;;;;;7.25;2.03;;;8.40;99.90;;;;;;7344418;32;20131;-57
2023/12/11 16:49:32;;;;;;;7.35;2.58;;;8.50;99.90;;;;;;7343183;32;20125;-57
2023/12/11 16:53:46;;;;;;;10.13;2.30;;;8.50;99.90;;;;;;7352107;32;20117;-56
2023/12/11 16:57:48;;;;;;;9.95;2.17;;;8.50;99.90;;;;;;7353860;32;20170;-56
2023/12/11 17:01:50;;;;;;;10.27;2.40;;;8.50;99.90;;;;;;7356517;32;20122;-57
2023/12/11 17:05:51;;;;;;;7.45;2.70;;;8.40;99.90;;;;;;7351518;32;20139;-56
2023/12/11 17:09:54;;;;;;;10.88;2.72;;;8.50;99.90;;;;;;7348557;32;20266;-56
2023/12/11 17:13:55;;;;;;;6.85;2.33;;;8.50;99.90;;;;;;7354466;32;21417;-57
2023/12/11 17:17:57;;;;;;;5.20;2.80;;;8.50;99.90;;;;;;7352529;32;20272;-57
2023/12/11 17:21:59;;;;;;;8.70;3.10;;;8.50;99.90;;;;;;7356691;32;20717;-57
2023/12/11 17:26:01;;;;;;;8.20;3.12;;;8.50;99.90;;;;;;7354344;32;20091;-57
2023/12/11 17:30:03;;;;;;;11.85;3.47;;;8.40;99.90;;;;;;7348747;32;20170;-56
2023/12/11 17:34:05;;;;;;;13.00;4.30;;;8.50;99.90;;;;;;7346392;32;20157;-56
2023/12/11 17:38:07;;;;;;;11.80;4.47;;;8.50;99.90;;;;;;7356506;32;20130;-58
2023/12/11 17:42:08;;;;;;;10.73;5.20;;;8.40;99.90;;;;;;7354341;32;20114;-57
2023/12/11 17:46:10;;;;;;;14.13;4.97;;;8.40;99.90;;;;;;7356531;32;20151;-57
2023/12/11 17:50:13;;;;;;;10.88;4.75;;;8.50;99.90;;;;;;7348734;32;20095;-57
2023/12/11 17:54:14;;;;;;;12.77;4.85;;;8.40;99.90;;;;;;7343304;32;20207;-57
2023/12/11 17:58:16;;;;;;;12.10;4.97;;;8.40;99.90;;;;;;7340389;32;20335;-57
2023/12/11 18:02:18;;;;;;;16.60;5.35;;;8.50;99.90;;;;;;7346187;32;20262;-57
2023/12/11 18:06:20;;;;;;;15.63;5.10;;;8.40;99.90;;;;;;7349596;32;20123;-57
2023/12/11 18:10:22;;;;;;;13.20;4.85;;;8.50;99.90;;;;;;7349425;32;20687;-57
2023/12/11 18:14:25;;;;;;;14.38;5.50;;;8.40;99.90;;;;;;7353258;32;20581;-57
2023/12/11 18:18:26;;;;;;;11.88;5.45;;;8.50;99.90;;;;;;7349168;32;20616;-57
2023/12/11 18:22:28;;;;;;;13.02;5.05;;;8.50;99.90;;;;;;7354233;32;20770;-57
2023/12/11 18:26:30;;;;;;;16.05;5.20;;;8.50;99.90;;;;;;7350768;32;20138;-57
2023/12/11 18:30:31;;;;;;;17.60;5.20;;;8.60;99.90;;;;;;7349080;32;20211;-57
2023/12/11 18:34:33;;;;;;;13.50;4.82;;;8.60;99.90;;;;;;7330492;32;20291;-57
2023/12/11 18:38:52;;;;;;;12.98;5.22;;;8.60;99.90;;;;;;7344307;32;20205;-56
2023/12/11 18:42:53;;;;;;;13.32;4.57;;;8.50;99.90;;;;;;7350125;32;20091;-57
2023/12/11 18:46:57;;;;;;;14.82;5.25;;;8.50;99.90;;;;;;7343068;32;20103;-56
2023/12/11 18:51:00;;;;;;;20.55;5.35;;;8.60;99.90;;;;;;7348351;32;20871;-56
2023/12/11 18:55:02;;;;;;;16.75;4.87;;;8.60;99.90;;;;;;7347310;32;20551;-56
2023/12/11 18:59:03;;;;;;;14.63;4.60;;;8.60;99.90;;;;;;7347498;32;20111;-56
2023/12/11 19:03:05;;;;;;;16.52;5.47;;;8.60;99.90;;;;;;7335418;32;20150;-56
2023/12/11 19:07:07;;;;;;;14.48;4.82;;;8.60;99.90;;;;;;7344518;32;20245;-57
2023/12/11 19:11:14;;;;;;;13.32;5.57;;;8.70;99.90;;;;;;7345778;32;20222;-58
2023/12/11 19:15:16;;;;;;;16.20;4.55;;;8.60;99.90;;;;;;7347032;32;20199;-57
2023/12/11 19:19:18;;;;;;;10.55;3.58;;;8.60;99.90;;;;;;7344508;32;20148;-58
2023/12/11 19:23:20;;;;;;;10.68;4.15;;;8.60;99.90;;;;;;7346585;32;20133;-57
2023/12/11 19:27:24;;;;;;;14.35;4.75;;;8.60;99.90;;;;;;7342283;32;20165;-58
2023/12/11 19:31:26;;;;;;;17.85;4.00;;;8.60;99.90;;;;;;7347040;32;20573;-57
2023/12/11 19:35:28;;;;;;;11.32;4.53;;;8.60;99.90;;;;;;7347531;32;20107;-56
2023/12/11 19:39:30;;;;;;;16.00;3.92;;;8.70;99.90;;;;;;7343896;32;20579;-57
2023/12/11 19:43:32;;;;;;;18.85;4.43;;;8.70;99.90;;;;;;7333770;32;20206;-57
2023/12/11 19:47:34;;;;;;;13.30;4.40;;;8.70;99.90;;;;;;7339007;32;20486;-57
2023/12/11 19:51:36;;;;;;;12.20;3.60;;;8.60;99.90;;;;;;7342162;32;20148;-57
2023/12/11 19:55:39;;;;;;;14.23;3.50;;;8.60;99.90;;;;;;7342675;32;20102;-56
2023/12/11 19:59:43;;;;;;;9.85;3.20;;;8.60;99.90;;;;;;7346648;32;20193;-56
2023/12/11 20:03:45;;;;;;;15.63;3.70;;;8.60;99.90;;;;;;7344064;32;20191;-56
2023/12/11 20:07:48;;;;;;;10.90;3.53;;;8.50;99.90;;;;;;7341665;32;20524;-57
2023/12/11 20:11:49;;;;;;;12.60;3.58;;;8.50;99.90;;;;;;7344500;32;20593;-56
2023/12/11 20:16:08;;;;;;;11.48;3.25;;;8.50;99.90;;;;;;7336227;32;20529;-56
2023/12/11 20:20:10;;;;;;;9.65;3.00;;;8.50;99.90;;;;;;7342037;32;20675;-56
2023/12/11 20:24:12;;;;;;;10.00;3.22;;;8.50;99.90;;;;;;7339135;32;20826;-55
2023/12/11 20:28:16;;;;;;;13.07;3.25;;;8.40;99.90;;;;;;7344037;32;20107;-55
2023/12/11 20:32:18;;;;;;;12.68;4.10;;;8.40;99.90;;;;;;7340171;32;20095;-55
2023/12/11 20:36:24;;;;;;;14.00;3.40;;;8.30;99.90;;;;;;7343692;32;20201;-58
2023/12/11 20:40:28;;;;;;;17.27;4.25;;;8.20;99.90;;;;;;7346667;32;20096;-56
2023/12/11 20:44:30;;;;;;;12.40;3.67;;;8.30;99.90;;;;;;7342634;32;20183;-56
2023/12/11 20:48:32;;;;;;;12.13;4.10;;;8.30;99.90;;;;;;7344646;32;20114;-57
2023/12/11 20:52:34;;;;;;;13.57;4.00;;;8.40;99.90;;;;;;7339257;32;20119;-56
2023/12/11 20:56:36;;;;;;;14.80;4.32;;;8.30;99.90;;;;;;7344753;32;20522;-55
2023/12/11 21:00:37;;;;;;;12.15;3.92;;;8.30;99.90;;;;;;7345858;32;20242;-56
2023/12/11 21:04:39;;;;;;;15.48;3.92;;;8.40;99.90;;;;;;7346423;32;20505;-56
2023/12/11 21:08:41;;;;;;;21.05;5.00;;;8.50;99.90;;;;;;7338924;32;20150;-56